Terminal Aerodrome Forecast
Issued by NWS Charleston, WV

Current Version | Previous Version | Graphics & Text | Print | Product List | Glossary On
Versions: 1 2 3 4 5 6 7 8 9 10 11 12 13 14 15 16 17 18 19 20 21 22 23 24 25 26 27 28 29
000
FTUS41 KRLX 061735
TAFCRW
TAF
KCRW 061735Z 0618/0718 10005KT 6SM -RA BKN035 OVC090
      TEMPO 0618/0621 3SM -SHRA BR BKN021
     FM062100 16008KT P6SM OVC015
      TEMPO 0621/0623 2SM -RA OVC007
     FM070000 20008KT P6SM OVC015
     FM070200 25008KT P6SM OVC010
     FM071200 29004KT P6SM BKN025=

USA.gov is the U.S. government's official web portal to all federal, state and local government web resources and services.